createdAt,value
2022-07-27T00:02:36.973Z,54.96
2022-07-27T00:05:40.239Z,54.87
2022-07-27T00:08:42.950Z,54.86
2022-07-27T00:11:47.765Z,54.65
2022-07-27T00:14:50.698Z,54.84
2022-07-27T00:17:53.630Z,54.87
2022-07-27T00:20:56.470Z,54.89
2022-07-27T00:23:59.204Z,54.86
2022-07-27T00:27:03.236Z,55.04
2022-07-27T00:30:07.233Z,55.07
2022-07-27T00:33:09.928Z,55.32
2022-07-27T00:36:13.116Z,55.29
2022-07-27T00:39:15.850Z,55.37
2022-07-27T00:42:27.146Z,55.57
2022-07-27T00:45:29.897Z,55.52
2022-07-27T00:48:32.798Z,55.43
2022-07-27T00:51:35.549Z,56.07
2022-07-27T00:54:38.777Z,57.19
2022-07-27T00:57:53.244Z,57.98
2022-07-27T01:01:02.822Z,58.60
2022-07-27T01:04:06.356Z,59.61
2022-07-27T01:07:10.323Z,60.16
2022-07-27T01:10:13.670Z,60.42
2022-07-27T01:13:18.958Z,60.93
2022-07-27T01:16:21.875Z,61.29
2022-07-27T01:19:25.147Z,61.68
2022-07-27T01:22:29.555Z,62.28
2022-07-27T01:25:32.278Z,62.27
2022-07-27T01:28:35.112Z,62.11
2022-07-27T01:31:37.881Z,62.15
2022-07-27T01:34:40.824Z,62.32
2022-07-27T01:37:47.598Z,62.54
2022-07-27T01:40:51.686Z,62.71
2022-07-27T01:43:54.529Z,62.66
2022-07-27T01:46:57.475Z,63.09
2022-07-27T01:50:00.555Z,63.63
2022-07-27T01:53:04.714Z,63.82
2022-07-27T01:56:12.945Z,64.05
2022-07-27T01:59:15.978Z,64.29
2022-07-27T02:02:20.240Z,64.51
2022-07-27T02:05:23.311Z,64.95
2022-07-27T02:08:27.711Z,65.17
2022-07-27T02:11:49.716Z,65.68
2022-07-27T02:14:52.402Z,65.86
2022-07-27T02:17:57.573Z,66.52
2022-07-27T02:21:00.551Z,66.80
2022-07-27T02:24:04.876Z,67.21
2022-07-27T02:27:07.775Z,67.16
2022-07-27T02:30:12.153Z,67.29
2022-07-27T02:33:15.141Z,67.52
2022-07-27T02:36:18.750Z,67.72
2022-07-27T02:39:23.161Z,67.89
2022-07-27T02:42:25.961Z,67.98
2022-07-27T02:45:29.087Z,68.28
2022-07-27T02:48:33.214Z,68.18
2022-07-27T02:51:36.221Z,67.90
2022-07-27T02:54:44.032Z,67.67
2022-07-27T02:57:46.729Z,67.48
2022-07-27T03:00:52.610Z,67.16
2022-07-27T03:03:59.137Z,67.24
2022-07-27T03:07:02.126Z,67.30
2022-07-27T03:10:07.999Z,67.39
2022-07-27T03:13:11.596Z,67.61
2022-07-27T03:16:14.489Z,67.75
2022-07-27T03:19:17.884Z,67.95
2022-07-27T03:22:20.601Z,67.93
2022-07-27T03:25:26.372Z,68.11
2022-07-27T03:28:29.081Z,68.16
2022-07-27T03:31:32.305Z,68.15
2022-07-27T03:34:35.052Z,68.13
2022-07-27T03:37:37.788Z,68.26
2022-07-27T03:40:42.370Z,68.50
2022-07-27T03:43:45.102Z,68.63
2022-07-27T03:46:47.801Z,68.76
2022-07-27T03:49:52.770Z,69.06
2022-07-27T03:52:56.668Z,69.38
2022-07-27T03:56:00.947Z,69.49
2022-07-27T03:59:03.834Z,69.82
2022-07-27T04:02:07.630Z,69.93
2022-07-27T04:05:11.871Z,70.03
2022-07-27T04:08:14.778Z,70.43
2022-07-27T04:11:18.996Z,70.20
2022-07-27T04:14:22.710Z,70.55
2022-07-27T04:17:56.470Z,70.20
2022-07-27T04:20:48.196Z,70.41
2022-07-27T04:23:51.044Z,70.13
2022-07-27T04:26:55.171Z,70.28
2022-07-27T04:29:57.928Z,70.41
2022-07-27T04:33:00.651Z,70.27
2022-07-27T04:36:03.416Z,70.63
2022-07-27T04:39:06.916Z,70.44
2022-07-27T04:42:11.088Z,70.68
2022-07-27T04:45:13.827Z,70.67
2022-07-27T04:48:16.897Z,70.87
2022-07-27T04:51:19.724Z,71.02
2022-07-27T04:54:22.862Z,70.78
2022-07-27T04:57:27.018Z,70.90
2022-07-27T05:00:34.187Z,71.26
2022-07-27T05:03:37.120Z,71.73
2022-07-27T05:06:40.456Z,71.31
2022-07-27T05:09:43.396Z,71.07
2022-07-27T05:12:47.600Z,70.81
2022-07-27T05:15:54.992Z,69.88
2022-07-27T05:18:58.827Z,68.68
2022-07-27T05:22:01.869Z,67.60
2022-07-27T05:25:05.040Z,67.06
2022-07-27T05:28:09.040Z,65.81
2022-07-27T05:31:11.744Z,63.73
2022-07-27T05:34:14.440Z,60.41
2022-07-27T05:37:17.165Z,57.88
2022-07-27T05:40:19.897Z,56.19
2022-07-27T05:43:24.074Z,56.08
2022-07-27T05:46:31.059Z,57.03
2022-07-27T05:49:35.796Z,57.10
2022-07-27T05:52:39.191Z,56.47
2022-07-27T05:55:58.351Z,54.21
2022-07-27T05:59:07.104Z,51.94
2022-07-27T06:02:10.260Z,52.08
2022-07-27T06:05:15.846Z,53.58
2022-07-27T06:08:19.691Z,52.42
2022-07-27T06:11:22.528Z,49.50
2022-07-27T06:14:26.683Z,47.00
2022-07-27T06:17:29.711Z,45.07
2022-07-27T06:20:32.845Z,44.95
2022-07-27T06:23:35.572Z,44.74
2022-07-27T06:26:38.897Z,44.58
2022-07-27T06:29:43.960Z,44.72
2022-07-27T06:32:47.790Z,44.45
2022-07-27T06:35:50.565Z,44.57
2022-07-27T06:38:55.684Z,45.84
2022-07-27T06:41:58.775Z,46.25
2022-07-27T06:45:02.903Z,47.62
2022-07-27T06:48:06.412Z,48.46
2022-07-27T06:51:09.182Z,48.29
2022-07-27T06:54:12.495Z,49.44
2022-07-27T06:57:15.675Z,50.90
2022-07-27T07:00:19.842Z,51.47
2022-07-27T07:03:22.550Z,51.26
2022-07-27T07:06:25.423Z,51.20
2022-07-27T07:09:28.718Z,50.78
2022-07-27T07:12:32.090Z,50.17
2022-07-27T07:15:37.981Z,49.93
2022-07-27T07:18:41.080Z,49.58
2022-07-27T07:21:43.948Z,49.91
2022-07-27T07:24:46.661Z,50.05
2022-07-27T07:27:49.715Z,49.66
2022-07-27T07:30:54.038Z,49.91
2022-07-27T07:33:56.720Z,49.78
2022-07-27T07:36:59.429Z,49.56
2022-07-27T07:43:25.550Z,48.78
2022-07-27T07:46:29.736Z,48.73
2022-07-27T07:49:38.110Z,49.21
2022-07-27T07:52:43.063Z,49.64
2022-07-27T07:55:45.851Z,49.63
2022-07-27T07:58:48.865Z,49.58
2022-07-27T08:01:53.317Z,50.12
2022-07-27T08:04:56.080Z,49.36
2022-07-27T08:07:58.832Z,46.55
2022-07-27T08:11:01.571Z,45.88
2022-07-27T08:14:04.835Z,46.75
2022-07-27T08:17:09.025Z,48.01
2022-07-27T08:20:13.008Z,48.66
2022-07-27T08:23:16.405Z,48.84
2022-07-27T08:26:19.277Z,48.41
2022-07-27T08:29:24.731Z,48.17
2022-07-27T08:32:52.248Z,47.43
2022-07-27T08:35:55.029Z,47.11
2022-07-27T08:39:01.929Z,46.39
2022-07-27T08:42:09.624Z,45.67
2022-07-27T08:45:16.163Z,45.22
2022-07-27T08:48:21.711Z,44.69
2022-07-27T08:51:25.906Z,43.98
2022-07-27T08:54:29.118Z,44.90
2022-07-27T08:57:31.826Z,45.82
2022-07-27T09:00:35.925Z,45.14
2022-07-27T09:03:40.192Z,45.99
2022-07-27T09:06:54.424Z,46.10
2022-07-27T09:09:57.285Z,46.84
2022-07-27T09:13:01.208Z,47.01
2022-07-27T09:16:18.035Z,46.59
2022-07-27T09:19:23.133Z,46.62
2022-07-27T09:22:43.643Z,46.69
2022-07-27T09:26:03.187Z,46.56
2022-07-27T09:29:11.585Z,46.06
2022-07-27T09:32:17.798Z,45.75
2022-07-27T09:35:24.900Z,45.55
2022-07-27T09:38:27.714Z,45.77
2022-07-27T09:41:41.428Z,45.27
2022-07-27T09:44:46.131Z,45.25
2022-07-27T09:48:08.173Z,44.67
2022-07-27T09:51:57.825Z,44.09
2022-07-27T09:54:45.220Z,43.16
2022-07-27T09:57:53.158Z,42.83
2022-07-27T10:00:57.308Z,42.11
2022-07-27T10:04:02.087Z,41.45
2022-07-27T10:07:12.446Z,41.02
2022-07-27T10:10:17.223Z,39.10
2022-07-27T10:13:20.192Z,39.90
2022-07-27T10:16:25.539Z,39.95
2022-07-27T10:19:35.100Z,41.35
2022-07-27T10:22:52.383Z,41.59
2022-07-27T10:26:20.322Z,41.76
2022-07-27T10:29:24.568Z,41.90
2022-07-27T10:32:31.092Z,41.24
2022-07-27T10:35:35.592Z,41.83
2022-07-27T10:38:48.596Z,41.29
2022-07-27T10:41:51.516Z,40.39
2022-07-27T10:45:06.662Z,40.16
2022-07-27T10:48:09.507Z,40.02
2022-07-27T10:51:13.112Z,39.29
2022-07-27T10:54:26.882Z,38.83
2022-07-27T10:57:31.738Z,38.44
2022-07-27T11:01:10.223Z,38.69
2022-07-27T11:04:19.127Z,38.22
2022-07-27T11:07:28.166Z,37.96
2022-07-27T11:10:45.315Z,37.18
2022-07-27T11:13:51.533Z,36.85
2022-07-27T11:16:56.627Z,37.07
2022-07-27T11:20:03.475Z,36.67
2022-07-27T11:26:44.728Z,36.59
2022-07-27T11:29:47.476Z,36.33
2022-07-27T11:32:50.529Z,35.72
2022-07-27T11:35:54.823Z,35.81
2022-07-27T11:38:57.535Z,35.41
2022-07-27T11:42:11.540Z,36.23
2022-07-27T11:45:29.636Z,35.49
2022-07-27T11:48:56.341Z,35.19
2022-07-27T11:51:57.411Z,35.17
2022-07-27T11:55:00.508Z,35.57
2022-07-27T11:58:05.519Z,35.45
2022-07-27T12:01:08.229Z,35.80
2022-07-27T12:04:14.318Z,35.74
2022-07-27T12:07:19.981Z,35.34
2022-07-27T12:10:23.042Z,35.15
2022-07-27T12:13:34.255Z,36.00
2022-07-27T12:16:37.076Z,36.18
2022-07-27T12:19:40.392Z,36.01
2022-07-27T12:22:44.785Z,36.09
2022-07-27T12:25:49.302Z,36.44
2022-07-27T12:29:09.058Z,37.05
2022-07-27T12:32:14.663Z,36.52
2022-07-27T12:35:23.377Z,34.93
2022-07-27T12:38:37.988Z,35.03
2022-07-27T12:41:40.731Z,34.95
2022-07-27T12:44:46.392Z,33.19
2022-07-27T12:47:49.176Z,33.64
2022-07-27T12:51:00.356Z,34.04
2022-07-27T12:54:03.036Z,34.53
2022-07-27T12:57:05.883Z,34.30
2022-07-27T13:00:12.940Z,34.47
2022-07-27T13:03:16.549Z,34.48
2022-07-27T13:06:19.391Z,34.79
2022-07-27T13:09:22.090Z,35.67
2022-07-27T13:12:25.259Z,35.62
2022-07-27T13:15:29.798Z,35.26
2022-07-27T13:18:32.607Z,35.03
2022-07-27T13:21:35.593Z,35.44
2022-07-27T13:24:38.349Z,36.06
2022-07-27T13:27:41.597Z,36.53
2022-07-27T13:30:45.849Z,36.84
2022-07-27T13:33:48.792Z,36.32
2022-07-27T13:36:51.714Z,36.64
2022-07-27T13:39:54.680Z,35.67
2022-07-27T13:42:57.440Z,35.11
2022-07-27T13:46:03.283Z,35.13
2022-07-27T13:49:06.264Z,34.52
2022-07-27T13:52:12.262Z,35.21
2022-07-27T13:55:16.813Z,35.64
2022-07-27T13:58:20.140Z,34.49
2022-07-27T14:01:24.266Z,34.75
2022-07-27T14:04:27.376Z,34.04
2022-07-27T14:07:31.689Z,34.27
2022-07-27T14:10:39.783Z,34.69
2022-07-27T14:13:42.599Z,34.74
2022-07-27T14:16:46.944Z,34.39
2022-07-27T14:19:49.711Z,33.75
2022-07-27T14:22:52.447Z,33.30
2022-07-27T14:25:56.731Z,33.13
2022-07-27T14:28:59.673Z,33.24
2022-07-27T14:32:04.021Z,32.68
2022-07-27T14:35:07.704Z,33.19
2022-07-27T14:38:12.615Z,32.95
2022-07-27T14:41:16.294Z,32.32
2022-07-27T14:44:19.214Z,31.09
2022-07-27T14:47:23.502Z,31.87
2022-07-27T14:50:26.367Z,32.39
2022-07-27T14:53:29.107Z,33.22
2022-07-27T14:56:31.979Z,33.22
2022-07-27T14:59:34.899Z,33.72
2022-07-27T15:02:39.197Z,33.17
2022-07-27T15:05:49.443Z,32.32
2022-07-27T15:08:53.602Z,31.99
2022-07-27T15:11:56.705Z,31.78
2022-07-27T15:14:59.799Z,31.80
2022-07-27T15:18:03.839Z,31.49
2022-07-27T15:21:13.014Z,31.24
2022-07-27T15:24:16.653Z,31.07
2022-07-27T15:27:19.351Z,31.06
2022-07-27T15:30:23.425Z,31.59
2022-07-27T15:33:28.046Z,31.61
2022-07-27T15:36:32.419Z,30.88
2022-07-27T15:39:37.192Z,30.96
2022-07-27T15:42:42.071Z,31.09
2022-07-27T15:45:48.171Z,30.91
2022-07-27T15:48:52.859Z,30.98
2022-07-27T15:51:55.856Z,31.18
2022-07-27T15:54:58.611Z,31.26
2022-07-27T15:58:01.493Z,30.72
2022-07-27T16:01:04.463Z,30.60
2022-07-27T16:04:09.292Z,30.34
2022-07-27T16:07:12.300Z,30.48
2022-07-27T16:10:14.984Z,30.97
2022-07-27T16:13:18.212Z,30.79
2022-07-27T16:16:25.987Z,30.72
2022-07-27T16:19:30.435Z,30.71
2022-07-27T16:22:34.682Z,30.52
2022-07-27T16:26:02.132Z,30.79
2022-07-27T16:29:02.078Z,30.72
2022-07-27T16:32:05.354Z,30.71
2022-07-27T16:35:10.751Z,31.19
2022-07-27T16:38:14.353Z,31.67
2022-07-27T16:41:17.653Z,32.29
2022-07-27T16:44:21.737Z,31.97
2022-07-27T16:47:24.431Z,32.09
2022-07-27T16:50:28.845Z,31.61
2022-07-27T16:53:33.609Z,31.65
2022-07-27T16:56:37.695Z,31.63
2022-07-27T16:59:41.634Z,31.27
2022-07-27T17:02:44.345Z,31.30
2022-07-27T17:05:48.816Z,31.42
2022-07-27T17:08:51.900Z,31.69
2022-07-27T17:11:55.138Z,31.95
2022-07-27T17:14:57.869Z,32.05
2022-07-27T17:18:02.972Z,32.44
2022-07-27T17:21:09.243Z,33.34
2022-07-27T17:24:12.232Z,33.55
2022-07-27T17:27:14.894Z,33.61
2022-07-27T17:30:17.853Z,33.55
2022-07-27T17:33:20.901Z,33.69
2022-07-27T17:36:26.147Z,34.18
2022-07-27T17:39:29.845Z,34.50
2022-07-27T17:42:33.552Z,34.35
2022-07-27T17:45:36.320Z,34.33
2022-07-27T17:48:40.493Z,35.13
2022-07-27T17:51:44.667Z,34.74
2022-07-27T17:54:48.603Z,35.17
2022-07-27T17:57:51.364Z,35.41
2022-07-27T18:00:54.101Z,35.21
2022-07-27T18:03:57.617Z,35.60
2022-07-27T18:07:01.807Z,35.73
2022-07-27T18:10:05.521Z,36.10
2022-07-27T18:13:08.398Z,36.67
2022-07-27T18:16:14.017Z,36.34
2022-07-27T18:19:17.170Z,35.89
2022-07-27T18:22:21.361Z,36.21
2022-07-27T18:25:24.975Z,36.43
2022-07-27T18:28:28.091Z,36.84
2022-07-27T18:31:30.981Z,37.19
2022-07-27T18:34:33.800Z,37.54
2022-07-27T18:37:37.967Z,37.71
2022-07-27T18:40:42.591Z,38.04
2022-07-27T18:43:50.963Z,38.03
2022-07-27T18:46:53.796Z,38.20
2022-07-27T18:49:59.568Z,38.36
2022-07-27T18:53:03.830Z,38.58
2022-07-27T18:56:07.803Z,38.44
2022-07-27T18:59:11.091Z,38.56
2022-07-27T19:02:14.008Z,38.66
2022-07-27T19:05:18.210Z,38.92
2022-07-27T19:08:39.419Z,39.02
2022-07-27T19:11:43.087Z,39.54
2022-07-27T19:14:50.125Z,40.22
2022-07-27T19:17:53.849Z,41.03
2022-07-27T19:20:56.626Z,41.66
2022-07-27T19:24:00.959Z,41.67
2022-07-27T19:27:04.388Z,41.92
2022-07-27T19:30:08.707Z,42.35
2022-07-27T19:33:11.575Z,42.36
2022-07-27T19:36:14.606Z,42.79
2022-07-27T19:39:18.649Z,43.21
2022-07-27T19:42:21.618Z,43.52
2022-07-27T19:45:24.795Z,43.61
2022-07-27T19:48:29.283Z,43.76
2022-07-27T19:51:32.356Z,43.44
2022-07-27T19:54:36.499Z,43.55
2022-07-27T19:57:39.302Z,43.64
2022-07-27T20:00:42.398Z,44.10
2022-07-27T20:03:51.979Z,44.37
2022-07-27T20:06:57.613Z,44.56
2022-07-27T20:10:02.138Z,44.47
2022-07-27T20:13:05.607Z,44.60
2022-07-27T20:16:08.336Z,45.54
2022-07-27T20:19:11.379Z,45.60
2022-07-27T20:22:14.433Z,45.60
2022-07-27T20:25:19.012Z,45.49
2022-07-27T20:28:21.991Z,45.72
2022-07-27T20:31:27.472Z,45.81
2022-07-27T20:34:30.212Z,46.30
2022-07-27T20:37:33.139Z,46.31
2022-07-27T20:40:37.387Z,46.67
2022-07-27T20:43:40.254Z,46.76
2022-07-27T20:46:43.577Z,47.36
2022-07-27T20:49:46.257Z,47.56
2022-07-27T20:52:48.963Z,47.58
2022-07-27T20:55:53.070Z,47.70
2022-07-27T20:58:55.834Z,48.20
2022-07-27T21:01:58.753Z,48.18
2022-07-27T21:05:02.304Z,48.63
2022-07-27T21:08:06.075Z,48.43
2022-07-27T21:11:10.141Z,48.62
2022-07-27T21:14:13.099Z,48.63
2022-07-27T21:17:15.974Z,48.86
2022-07-27T21:20:18.820Z,48.89
2022-07-27T21:23:39.147Z,49.24
2022-07-27T21:26:43.726Z,49.38
2022-07-27T21:29:46.398Z,49.58
2022-07-27T21:32:49.135Z,49.47
2022-07-27T21:35:52.750Z,49.64
2022-07-27T21:38:55.919Z,49.75
2022-07-27T21:42:02.309Z,50.38
2022-07-27T21:45:06.799Z,50.55
2022-07-27T21:48:09.789Z,50.72
2022-07-27T21:51:18.096Z,50.83
2022-07-27T21:54:21.132Z,51.15
2022-07-27T21:57:25.313Z,51.10
2022-07-27T22:00:29.495Z,51.59
2022-07-27T22:03:32.308Z,51.61
2022-07-27T22:06:35.853Z,51.77
2022-07-27T22:09:44.017Z,51.86
2022-07-27T22:12:48.923Z,52.18
2022-07-27T22:15:51.781Z,52.07
2022-07-27T22:18:54.687Z,52.64
2022-07-27T22:21:57.626Z,52.67
2022-07-27T22:25:00.327Z,52.66
2022-07-27T22:28:05.026Z,52.93
2022-07-27T22:31:21.449Z,52.79
2022-07-27T22:34:26.665Z,53.49
2022-07-27T22:37:29.431Z,53.30
2022-07-27T22:40:32.228Z,53.74
2022-07-27T22:43:36.884Z,53.90
2022-07-27T22:46:39.776Z,53.92
2022-07-27T22:49:43.475Z,53.97
2022-07-27T22:52:47.530Z,54.07
2022-07-27T22:55:50.353Z,54.39
2022-07-27T22:58:54.380Z,54.41
2022-07-27T23:01:57.337Z,54.27
2022-07-27T23:05:00.732Z,54.38
2022-07-27T23:08:03.800Z,54.64
2022-07-27T23:11:06.831Z,55.07
2022-07-27T23:14:11.404Z,55.14
2022-07-27T23:17:14.419Z,55.36
2022-07-27T23:20:17.244Z,55.39
2022-07-27T23:23:20.092Z,55.61
2022-07-27T23:26:26.261Z,55.59
2022-07-27T23:29:30.689Z,55.68
2022-07-27T23:32:33.835Z,55.62
2022-07-27T23:35:36.775Z,55.98
2022-07-27T23:38:39.917Z,55.83
2022-07-27T23:41:46.570Z,55.99
2022-07-27T23:44:54.268Z,56.15
2022-07-27T23:47:57.311Z,56.03
2022-07-27T23:51:00.284Z,56.28
2022-07-27T23:54:03.032Z,56.32
2022-07-27T23:57:07.319Z,56.85
